Santaquin, UT

5:56 PM MDT on May 06, 2015 (GMT -0600)
MesoWest | | Change Station
CLOSE
Current Station
Personal Weather Station
Location: Payson, UT
Elevation: 4528 ft
Nearby Weather Stations

Elev 4528 ft 40.07 °N, 111.72 °W | Updated 36 minutes ago

Mostly Cloudy
Mostly Cloudy
63 °F
Feels Like 63 °F
N
4
Wind Variable Wind from North
Gusts 8.0 mph

Today
High -- | Low -- °F
--% Chance of Precip.
Yesterday
High -- | Low -- °F
Precip. -- in
6:21 AM 8:26 PM
Waning Gibbous, 92% visible
Pressure 29.73 in
Visibility 15.0 miles
Clouds Scattered Clouds 6500 ft
Mostly Cloudy 12000 ft
Dew Point 45 °F
Humidity 52%
Rainfall in
Snow Depth Not available.
UV 2 out of 12
Pollen 7.40 out of 12
Air Quality Not available.
Flu Activity Regional
METAR KPVU 062347Z 00000KT 15SM SCT065 BKN120 16/06 A2973

More Conditions Fewer Conditions

Pressure 29.73 in
Visibility 15.0 miles
Clouds Scattered Clouds 6500 ft
Mostly Cloudy 12000 ft
Dew Point 45 °F
Humidity 52%
Rainfall in
Snow Depth Not available.
UV 2 out of 12
Pollen 7.40 out of 12
Air Quality Not available.
Flu Activity Regional
METAR KPVU 062347Z 00000KT 15SM SCT065 BKN120 16/06 A2973

More Conditions Fewer Conditions

10-Day Weather Forecast

Almanac

Astronomy

May. 06, 2015 Rise Set
Actual Time
Civil Twilight
Nautical Twilight
Astronomical Twilight
Moon
Length of Visible Light
Length of Day
Tomorrow will be .
, % of the Moon is Illuminated

Today's Extremes

State Highs State Lows

Community

WunderPhotos

Upload Photos

1,819,043 photos uploaded!

WunderBlogs® & News

Nearby

Air Quality

  Air Quality AQ Index Pollutant
Not available.

Snow Depth

Station Depth Elevation

Earthquake Activity

City Distance Mag. Time & Date
Minimum magnitude displayed is 2.5.

Coastal Water Temperatures

Place Temperature

Stations

Nearby Weather Stations

Station Location Temp. Windchill Dew Point Humidity Wind Precip. Elev Updated Type